Time,TemperatureF,DewpointF,PressureIn,WindDirection,WindDirectionDegrees,WindSpeedMPH,WindSpeedGustMPH,Humidity,HourlyPrecipIn,Conditions,Clouds,dailyrainin,SoftwareType,DateUTC
2013-05-01 00:13:00,61.5,56.0,29.93,NNE,22,0.0,-999.0,82,-99.99,,,0.00,Acu-Link.com,2013-05-01 04:13:00,
2013-05-01 00:28:00,61.2,56.0,29.94,ESE,112,0.0,-999.0,83,-99.99,,,0.00,Acu-Link.com,2013-05-01 04:28:00,
2013-05-01 00:43:00,60.3,55.8,29.94,ESE,112,0.0,-999.0,85,-99.99,,,0.00,Acu-Link.com,2013-05-01 04:43:00,
2013-05-01 00:58:00,59.5,55.3,29.94,ESE,112,0.0,-999.0,86,-99.99,,,0.00,Acu-Link.com,2013-05-01 04:58:00,
2013-05-01 01:14:00,58.8,54.9,29.94,SE,135,0.0,-999.0,87,-99.99,,,0.00,Acu-Link.com,2013-05-01 05:14:00,
2013-05-01 01:29:00,58.3,55.4,29.95,ESE,112,0.0,-999.0,90,-99.99,,,0.00,Acu-Link.com,2013-05-01 05:29:00,
2013-05-01 01:44:00,57.7,54.5,29.94,South,180,0.0,-999.0,89,-99.99,,,0.00,Acu-Link.com,2013-05-01 05:44:00,
2013-05-01 01:59:00,57.2,54.6,29.95,South,180,0.0,-999.0,91,-99.99,,,0.00,Acu-Link.com,2013-05-01 05:59:00,
2013-05-01 02:15:00,56.8,54.5,29.94,South,180,0.0,-999.0,92,-99.99,,,0.00,Acu-Link.com,2013-05-01 06:15:00,
2013-05-01 02:30:00,56.5,54.5,29.94,West,270,0.0,-999.0,93,-99.99,,,0.00,Acu-Link.com,2013-05-01 06:30:00,
2013-05-01 02:45:00,56.1,54.4,29.93,South,180,0.0,-999.0,94,-99.99,,,0.00,Acu-Link.com,2013-05-01 06:45:00,
2013-05-01 03:00:00,56.1,54.7,29.94,ESE,112,0.0,-999.0,95,-99.99,,,0.00,Acu-Link.com,2013-05-01 07:00:00,
2013-05-01 03:15:00,55.4,54.6,29.94,WNW,292,0.0,-999.0,97,-99.99,,,0.00,Acu-Link.com,2013-05-01 07:15:00,
2013-05-01 03:31:00,55.6,54.8,29.95,North,0,0.0,-999.0,97,-99.99,,,0.00,Acu-Link.com,2013-05-01 07:31:00,
2013-05-01 03:46:00,55.2,54.4,29.95,North,0,0.0,-999.0,97,-99.99,,,0.00,Acu-Link.com,2013-05-01 07:46:00,
2013-05-01 04:01:00,54.9,54.3,29.95,North,0,0.0,-999.0,98,-99.99,,,0.00,Acu-Link.com,2013-05-01 08:01:00,
2013-05-01 04:16:00,54.5,53.9,29.95,North,0,0.0,-999.0,98,-99.99,,,0.00,Acu-Link.com,2013-05-01 08:16:00,
2013-05-01 04:32:00,54.3,53.7,29.95,North,0,0.0,-999.0,98,-99.99,,,0.00,Acu-Link.com,2013-05-01 08:32:00,
2013-05-01 04:47:00,53.8,53.5,29.96,East,90,0.0,-999.0,99,-99.99,,,0.00,Acu-Link.com,2013-05-01 08:47:00,
2013-05-01 05:02:00,53.2,52.6,29.96,East,90,0.0,-999.0,98,-99.99,,,0.00,Acu-Link.com,2013-05-01 09:02:00,
2013-05-01 05:17:00,53.4,53.1,29.97,East,90,0.0,-999.0,99,-99.99,,,0.00,Acu-Link.com,2013-05-01 09:17:00,
2013-05-01 05:32:00,53.2,52.9,29.97,SE,135,0.0,-999.0,99,-99.99,,,0.00,Acu-Link.com,2013-05-01 09:32:00,
2013-05-01 05:47:00,53.1,52.8,29.97,SE,135,0.0,-999.0,99,-99.99,,,0.00,Acu-Link.com,2013-05-01 09:47:00,
2013-05-01 06:03:00,53.4,53.1,29.98,North,0,0.0,-999.0,99,-99.99,,,0.00,Acu-Link.com,2013-05-01 10:03:00,
2013-05-01 06:18:00,53.2,52.9,29.99,North,0,0.0,-999.0,99,-99.99,,,0.00,Acu-Link.com,2013-05-01 10:18:00,
2013-05-01 06:33:00,53.1,52.8,29.99,ESE,112,0.0,-999.0,99,-99.99,,,0.00,Acu-Link.com,2013-05-01 10:33:00,
2013-05-01 06:48:00,53.1,52.8,30.00,ESE,112,0.0,-999.0,99,-99.99,,,0.00,Acu-Link.com,2013-05-01 10:48:00,
2013-05-01 07:03:00,53.1,52.8,30.01,WNW,292,0.0,-999.0,99,-99.99,,,0.00,Acu-Link.com,2013-05-01 11:03:00,
2013-05-01 07:18:00,53.8,53.5,30.02,SE,135,0.0,-999.0,99,-99.99,,,0.00,Acu-Link.com,2013-05-01 11:18:00,
2013-05-01 07:34:00,54.7,54.4,30.03,SE,135,0.0,-999.0,99,-99.99,,,0.00,Acu-Link.com,2013-05-01 11:34:00,
2013-05-01 07:49:00,59.4,56.5,30.03,South,180,1.7,-999.0,90,-99.99,,,0.00,Acu-Link.com,2013-05-01 11:49:00,
2013-05-01 08:04:00,64.9,57.1,30.04,West,270,1.1,-999.0,76,-99.99,,,0.00,Acu-Link.com,2013-05-01 12:04:00,
2013-05-01 08:19:00,66.7,57.0,30.04,West,270,0.0,-999.0,71,-99.99,,,0.00,Acu-Link.com,2013-05-01 12:19:00,
2013-05-01 08:34:00,67.8,57.3,30.05,SSW,202,2.2,-999.0,69,-99.99,,,0.00,Acu-Link.com,2013-05-01 12:34:00,
2013-05-01 08:50:00,71.4,56.8,30.04,West,270,2.2,-999.0,60,-99.99,,,0.00,Acu-Link.com,2013-05-01 12:50:00,
2013-05-01 09:05:00,75.2,58.9,30.04,SW,225,1.7,-999.0,57,-99.99,,,0.00,Acu-Link.com,2013-05-01 13:05:00,
2013-05-01 09:20:00,74.3,58.6,30.04,ESE,112,1.7,-999.0,58,-99.99,,,0.00,Acu-Link.com,2013-05-01 13:20:00,
2013-05-01 09:35:00,74.7,58.4,30.04,SSE,157,3.2,-999.0,57,-99.99,,,0.00,Acu-Link.com,2013-05-01 13:35:00,
2013-05-01 09:50:00,74.3,58.6,30.05,ESE,112,2.2,-999.0,58,-99.99,,,0.00,Acu-Link.com,2013-05-01 13:50:00,
2013-05-01 10:06:00,75.2,59.4,30.06,SE,135,4.2,-999.0,58,-99.99,,,0.00,Acu-Link.com,2013-05-01 14:06:00,
2013-05-01 10:21:00,77.9,61.4,30.06,ESE,112,3.7,-999.0,57,-99.99,,,0.00,Acu-Link.com,2013-05-01 14:21:00,
2013-05-01 10:36:00,75.0,60.2,30.06,East,90,3.7,-999.0,60,-99.99,,,0.00,Acu-Link.com,2013-05-01 14:36:00,
2013-05-01 10:51:00,80.8,62.0,30.06,WNW,292,2.2,-999.0,53,-99.99,,,0.00,Acu-Link.com,2013-05-01 14:51:00,
2013-05-01 11:07:00,82.2,62.8,30.07,ESE,112,1.7,-999.0,52,-99.99,,,0.00,Acu-Link.com,2013-05-01 15:07:00,
2013-05-01 11:22:00,79.5,61.4,30.06,ESE,112,2.2,-999.0,54,-99.99,,,0.00,Acu-Link.com,2013-05-01 15:22:00,
2013-05-01 11:37:00,81.9,62.5,30.06,SW,225,0.0,-999.0,52,-99.99,,,0.00,Acu-Link.com,2013-05-01 15:37:00,
2013-05-01 11:52:00,82.6,61.5,30.06,SSE,157,2.7,-999.0,49,-99.99,,,0.00,Acu-Link.com,2013-05-01 15:52:00,
2013-05-01 12:07:00,85.6,63.0,30.05,NW,315,2.7,-999.0,47,-99.99,,,0.00,Acu-Link.com,2013-05-01 16:07:00,
2013-05-01 12:23:00,82.2,60.5,30.04,ESE,112,2.7,-999.0,48,-99.99,,,0.00,Acu-Link.com,2013-05-01 16:23:00,
2013-05-01 12:38:00,83.3,60.9,30.04,SSW,202,3.2,-999.0,47,-99.99,,,0.00,Acu-Link.com,2013-05-01 16:38:00,
2013-05-01 12:53:00,88.3,62.3,30.03,WNW,292,2.7,-999.0,42,-99.99,,,0.00,Acu-Link.com,2013-05-01 16:53:00,
2013-05-01 13:09:00,82.9,59.4,30.02,ESE,112,4.2,-999.0,45,-99.99,,,0.00,Acu-Link.com,2013-05-01 17:09:00,
2013-05-01 13:24:00,83.1,61.9,30.02,North,0,1.7,-999.0,49,-99.99,,,0.00,Acu-Link.com,2013-05-01 17:24:00,
2013-05-01 13:39:00,82.2,58.7,30.01,South,180,2.7,-999.0,45,-99.99,,,0.00,Acu-Link.com,2013-05-01 17:39:00,
2013-05-01 13:54:00,82.4,58.9,30.00,SE,135,3.7,-999.0,45,-99.99,,,0.00,Acu-Link.com,2013-05-01 17:54:00,
2013-05-01 14:09:00,80.4,58.9,30.01,ENE,67,3.7,-999.0,48,-99.99,,,0.00,Acu-Link.com,2013-05-01 18:09:00,
2013-05-01 14:25:00,83.5,61.1,30.00,SE,135,3.7,-999.0,47,-99.99,,,0.00,Acu-Link.com,2013-05-01 18:25:00,
2013-05-01 14:40:00,81.9,59.1,30.00,ESE,112,7.3,-999.0,46,-99.99,,,0.00,Acu-Link.com,2013-05-01 18:40:00,
2013-05-01 14:56:00,83.3,60.3,30.00,NE,45,5.8,-999.0,46,-99.99,,,0.00,Acu-Link.com,2013-05-01 18:56:00,
2013-05-01 15:11:00,83.3,60.9,30.00,SE,135,5.3,-999.0,47,-99.99,,,0.00,Acu-Link.com,2013-05-01 19:11:00,
2013-05-01 15:26:00,83.3,60.3,30.00,ESE,112,6.3,-999.0,46,-99.99,,,0.00,Acu-Link.com,2013-05-01 19:26:00,
2013-05-01 15:41:00,81.7,59.5,30.00,East,90,7.3,-999.0,47,-99.99,,,0.00,Acu-Link.com,2013-05-01 19:41:00,
2013-05-01 15:56:00,82.6,60.3,30.00,East,90,2.7,-999.0,47,-99.99,,,0.00,Acu-Link.com,2013-05-01 19:56:00,
2013-05-01 16:12:00,82.4,58.9,29.99,ESE,112,2.7,-999.0,45,-99.99,,,0.00,Acu-Link.com,2013-05-01 20:12:00,
2013-05-01 16:27:00,80.4,58.3,29.99,NNE,22,5.8,-999.0,47,-99.99,,,0.00,Acu-Link.com,2013-05-01 20:27:00,
2013-05-01 16:42:00,81.3,59.7,29.99,South,180,2.7,-999.0,48,-99.99,,,0.00,Acu-Link.com,2013-05-01 20:42:00,
2013-05-01 16:57:00,81.3,59.7,29.99,ENE,67,5.3,-999.0,48,-99.99,,,0.00,Acu-Link.com,2013-05-01 20:57:00,
2013-05-01 17:13:00,81.9,58.4,29.99,NE,45,2.7,-999.0,45,-99.99,,,0.00,Acu-Link.com,2013-05-01 21:13:00,
2013-05-01 17:28:00,81.1,58.9,29.99,NNE,22,3.7,-999.0,47,-99.99,,,0.00,Acu-Link.com,2013-05-01 21:28:00,
2013-05-01 17:43:00,81.9,59.1,29.98,ESE,112,3.7,-999.0,46,-99.99,,,0.00,Acu-Link.com,2013-05-01 21:43:00,
2013-05-01 17:58:00,81.1,58.9,29.98,ENE,67,2.7,-999.0,47,-99.99,,,0.00,Acu-Link.com,2013-05-01 21:58:00,
2013-05-01 18:14:00,81.7,59.5,29.99,ESE,112,3.2,-999.0,47,-99.99,,,0.00,Acu-Link.com,2013-05-01 22:14:00,
2013-05-01 18:29:00,81.0,59.4,29.98,NNE,22,3.7,-999.0,48,-99.99,,,0.00,Acu-Link.com,2013-05-01 22:29:00,
2013-05-01 18:44:00,81.3,59.7,29.98,ESE,112,3.7,-999.0,48,-99.99,,,0.00,Acu-Link.com,2013-05-01 22:44:00,
2013-05-01 18:59:00,80.1,59.2,29.98,ESE,112,4.2,-999.0,49,-99.99,,,0.00,Acu-Link.com,2013-05-01 22:59:00,
2013-05-01 19:14:00,79.2,59.5,29.98,NE,45,3.2,-999.0,51,-99.99,,,0.00,Acu-Link.com,2013-05-01 23:14:00,
2013-05-01 19:30:00,78.6,59.5,29.98,East,90,5.3,-999.0,52,-99.99,,,0.00,Acu-Link.com,2013-05-01 23:30:00,
2013-05-01 19:45:00,78.1,59.6,29.98,NNE,22,3.2,-999.0,53,-99.99,,,0.00,Acu-Link.com,2013-05-01 23:45:00,
2013-05-01 20:00:00,77.4,59.9,29.98,WNW,292,1.1,-999.0,55,-99.99,,,0.00,Acu-Link.com,2013-05-02 00:00:00,
2013-05-01 20:15:00,76.6,59.2,29.98,ESE,112,1.1,-999.0,55,-99.99,,,0.00,Acu-Link.com,2013-05-02 00:15:00,
2013-05-01 20:30:00,75.7,58.4,29.99,South,180,2.7,-999.0,55,-99.99,,,0.00,Acu-Link.com,2013-05-02 00:30:00,
2013-05-01 20:46:00,74.7,57.4,29.99,SE,135,2.2,-999.0,55,-99.99,,,0.00,Acu-Link.com,2013-05-02 00:46:00,
2013-05-01 21:01:00,73.8,57.1,30.00,ESE,112,1.7,-999.0,56,-99.99,,,0.00,Acu-Link.com,2013-05-02 01:01:00,
2013-05-01 21:16:00,72.7,57.1,30.00,WNW,292,0.0,-999.0,58,-99.99,,,0.00,Acu-Link.com,2013-05-02 01:16:00,
2013-05-01 21:40:00,71.6,56.5,30.00,ESE,112,0.0,-999.0,59,-99.99,,,0.00,Acu-Link.com,2013-05-02 01:40:00,
2013-05-01 21:55:00,70.5,55.9,30.01,SSE,157,2.2,-999.0,60,-99.99,,,0.00,Acu-Link.com,2013-05-02 01:55:00,
2013-05-01 22:10:00,70.2,55.7,30.02,ESE,112,1.7,-999.0,60,-99.99,,,0.00,Acu-Link.com,2013-05-02 02:10:00,
2013-05-01 22:25:00,71.2,55.2,30.02,East,90,3.2,-999.0,57,-99.99,,,0.00,Acu-Link.com,2013-05-02 02:25:00,
2013-05-01 22:40:00,70.7,55.2,30.02,South,180,5.3,-999.0,58,-99.99,,,0.00,Acu-Link.com,2013-05-02 02:40:00,
2013-05-01 22:56:00,70.3,54.8,30.02,ESE,112,6.3,-999.0,58,-99.99,,,0.00,Acu-Link.com,2013-05-02 02:56:00,
2013-05-01 23:11:00,69.4,54.4,30.02,ESE,112,4.7,-999.0,59,-99.99,,,0.00,Acu-Link.com,2013-05-02 03:11:00,
2013-05-01 23:26:00,68.7,54.7,30.02,South,180,2.2,-999.0,61,-99.99,,,0.00,Acu-Link.com,2013-05-02 03:26:00,
2013-05-01 23:41:00,68.0,54.5,30.03,ENE,67,1.7,-999.0,62,-99.99,,,0.00,Acu-Link.com,2013-05-02 03:41:00,
2013-05-01 23:56:00,67.1,54.5,30.03,ESE,112,1.7,-999.0,64,-99.99,,,0.00,Acu-Link.com,2013-05-02 03:56:00,